Terminal Aerodrome Forecast
Issued by NWS

Home | Current Version | Previous Version | Text Only | Print | Product List | Glossary On
Versions: 1 2 3 4 5 6 7 8 9 10 11 12 13 14 15
466
FTUS43 KIND 052320
TAFHUF
TAF
KHUF 052320Z 0600/0624 10005KT P6SM BKN250
     FM060700 10005KT P6SM OVC070
     FM061100 05004KT P6SM VCSH OVC025
     FM061500 34005KT P6SM VCSH OVC008
     FM061800 32009KT P6SM BKN015
     FM062200 31011KT P6SM BKN035=

USA.gov is the U.S. government's official web portal to all federal, state and local government web resources and services.